sensor_id;sensor_type;location;lat;lon;timestamp;P1;durP1;ratioP1;P2;durP2;ratioP2
62523;SDS011;53689;56.878;60.672;2023-02-20T00:00:27;23.40;;;15.95;;
62523;SDS011;53689;56.878;60.672;2023-02-20T00:02:57;23.27;;;16.15;;
62523;SDS011;53689;56.878;60.672;2023-02-20T00:05:26;23.05;;;16.08;;
62523;SDS011;53689;56.878;60.672;2023-02-20T00:07:54;23.92;;;15.43;;
62523;SDS011;53689;56.878;60.672;2023-02-20T00:10:22;21.23;;;15.52;;
62523;SDS011;53689;56.878;60.672;2023-02-20T00:12:50;22.13;;;15.85;;
62523;SDS011;53689;56.878;60.672;2023-02-20T00:15:18;22.25;;;15.32;;
62523;SDS011;53689;56.878;60.672;2023-02-20T00:17:47;21.48;;;15.88;;
62523;SDS011;53689;56.878;60.672;2023-02-20T00:20:15;20.85;;;15.25;;
62523;SDS011;53689;56.878;60.672;2023-02-20T00:22:45;23.70;;;15.65;;
62523;SDS011;53689;56.878;60.672;2023-02-20T00:25:14;24.48;;;16.15;;
62523;SDS011;53689;56.878;60.672;2023-02-20T00:30:11;21.23;;;15.18;;
62523;SDS011;53689;56.878;60.672;2023-02-20T00:32:41;21.80;;;14.82;;
62523;SDS011;53689;56.878;60.672;2023-02-20T00:35:09;23.08;;;14.85;;
62523;SDS011;53689;56.878;60.672;2023-02-20T00:37:37;22.30;;;15.85;;
62523;SDS011;53689;56.878;60.672;2023-02-20T00:40:07;22.65;;;14.85;;
62523;SDS011;53689;56.878;60.672;2023-02-20T00:42:35;26.55;;;16.88;;
62523;SDS011;53689;56.878;60.672;2023-02-20T00:45:04;25.88;;;16.67;;
62523;SDS011;53689;56.878;60.672;2023-02-20T00:47:32;24.98;;;16.13;;
62523;SDS011;53689;56.878;60.672;2023-02-20T00:50:01;20.97;;;14.73;;
62523;SDS011;53689;56.878;60.672;2023-02-20T00:52:29;23.48;;;15.45;;
62523;SDS011;53689;56.878;60.672;2023-02-20T00:54:57;26.33;;;16.35;;
62523;SDS011;53689;56.878;60.672;2023-02-20T00:57:26;21.02;;;15.27;;
62523;SDS011;53689;56.878;60.672;2023-02-20T00:59:54;21.98;;;14.73;;
62523;SDS011;53689;56.878;60.672;2023-02-20T01:02:21;22.40;;;15.13;;
62523;SDS011;53689;56.878;60.672;2023-02-20T01:04:50;21.33;;;14.40;;
62523;SDS011;53689;56.878;60.672;2023-02-20T01:07:17;22.60;;;15.40;;
62523;SDS011;53689;56.878;60.672;2023-02-20T01:09:45;21.58;;;14.93;;
62523;SDS011;53689;56.878;60.672;2023-02-20T01:12:14;22.40;;;15.10;;
62523;SDS011;53689;56.878;60.672;2023-02-20T01:14:43;22.25;;;15.52;;
62523;SDS011;53689;56.878;60.672;2023-02-20T01:17:11;23.40;;;15.60;;
62523;SDS011;53689;56.878;60.672;2023-02-20T01:19:39;23.55;;;15.43;;
62523;SDS011;53689;56.878;60.672;2023-02-20T01:22:07;23.58;;;15.85;;
62523;SDS011;53689;56.878;60.672;2023-02-20T01:24:35;21.70;;;14.02;;
62523;SDS011;53689;56.878;60.672;2023-02-20T01:27:02;22.73;;;15.75;;
62523;SDS011;53689;56.878;60.672;2023-02-20T01:29:30;22.98;;;15.05;;
62523;SDS011;53689;56.878;60.672;2023-02-20T01:31:59;23.05;;;14.80;;
62523;SDS011;53689;56.878;60.672;2023-02-20T01:34:27;23.48;;;15.38;;
62523;SDS011;53689;56.878;60.672;2023-02-20T01:36:55;24.75;;;15.98;;
62523;SDS011;53689;56.878;60.672;2023-02-20T01:39:25;22.15;;;15.32;;
62523;SDS011;53689;56.878;60.672;2023-02-20T01:41:54;23.63;;;15.02;;
62523;SDS011;53689;56.878;60.672;2023-02-20T01:44:26;23.67;;;15.32;;
62523;SDS011;53689;56.878;60.672;2023-02-20T01:46:54;22.02;;;15.80;;
62523;SDS011;53689;56.878;60.672;2023-02-20T01:49:26;21.92;;;15.30;;
62523;SDS011;53689;56.878;60.672;2023-02-20T01:52:00;23.30;;;15.88;;
62523;SDS011;53689;56.878;60.672;2023-02-20T01:54:32;24.25;;;16.65;;
62523;SDS011;53689;56.878;60.672;2023-02-20T01:57:02;22.25;;;15.00;;
62523;SDS011;53689;56.878;60.672;2023-02-20T01:59:34;23.90;;;16.42;;
62523;SDS011;53689;56.878;60.672;2023-02-20T02:02:05;24.38;;;17.20;;
62523;SDS011;53689;56.878;60.672;2023-02-20T02:04:35;22.88;;;16.45;;
62523;SDS011;53689;56.878;60.672;2023-02-20T02:07:05;22.33;;;15.82;;
62523;SDS011;53689;56.878;60.672;2023-02-20T02:09:36;25.17;;;17.53;;
62523;SDS011;53689;56.878;60.672;2023-02-20T02:12:08;24.15;;;16.85;;
62523;SDS011;53689;56.878;60.672;2023-02-20T02:14:35;23.33;;;15.98;;
62523;SDS011;53689;56.878;60.672;2023-02-20T02:23:29;24.10;;;15.48;;
62523;SDS011;53689;56.878;60.672;2023-02-20T02:26:25;22.88;;;15.45;;
62523;SDS011;53689;56.878;60.672;2023-02-20T02:29:19;24.35;;;16.23;;
62523;SDS011;53689;56.878;60.672;2023-02-20T02:38:13;26.02;;;17.05;;
62523;SDS011;53689;56.878;60.672;2023-02-20T02:40:51;26.57;;;17.37;;
62523;SDS011;53689;56.878;60.672;2023-02-20T02:43:26;25.50;;;16.92;;
62523;SDS011;53689;56.878;60.672;2023-02-20T02:46:02;23.35;;;16.05;;
62523;SDS011;53689;56.878;60.672;2023-02-20T02:48:36;104.25;;;60.80;;
62523;SDS011;53689;56.878;60.672;2023-02-20T02:51:09;35.85;;;24.00;;
62523;SDS011;53689;56.878;60.672;2023-02-20T02:53:43;26.27;;;18.45;;
62523;SDS011;53689;56.878;60.672;2023-02-20T02:56:32;30.27;;;18.77;;
62523;SDS011;53689;56.878;60.672;2023-02-20T02:59:01;28.15;;;19.77;;
62523;SDS011;53689;56.878;60.672;2023-02-20T03:04:00;25.65;;;18.92;;
62523;SDS011;53689;56.878;60.672;2023-02-20T03:06:30;31.92;;;20.52;;
62523;SDS011;53689;56.878;60.672;2023-02-20T03:09:04;30.27;;;19.95;;
62523;SDS011;53689;56.878;60.672;2023-02-20T03:11:36;31.17;;;20.63;;
62523;SDS011;53689;56.878;60.672;2023-02-20T03:16:39;28.92;;;20.02;;
62523;SDS011;53689;56.878;60.672;2023-02-20T03:19:11;28.17;;;18.67;;
62523;SDS011;53689;56.878;60.672;2023-02-20T03:21:40;25.15;;;17.92;;
62523;SDS011;53689;56.878;60.672;2023-02-20T03:24:12;29.60;;;18.83;;
62523;SDS011;53689;56.878;60.672;2023-02-20T03:26:42;54.35;;;34.25;;
62523;SDS011;53689;56.878;60.672;2023-02-20T03:29:13;45.47;;;28.67;;
62523;SDS011;53689;56.878;60.672;2023-02-20T03:31:45;39.15;;;25.58;;
62523;SDS011;53689;56.878;60.672;2023-02-20T03:34:17;35.47;;;22.27;;
62523;SDS011;53689;56.878;60.672;2023-02-20T03:36:49;30.73;;;19.70;;
62523;SDS011;53689;56.878;60.672;2023-02-20T03:39:25;27.08;;;18.65;;
62523;SDS011;53689;56.878;60.672;2023-02-20T03:41:58;28.70;;;18.40;;
62523;SDS011;53689;56.878;60.672;2023-02-20T03:44:32;27.95;;;19.48;;
62523;SDS011;53689;56.878;60.672;2023-02-20T03:47:01;27.65;;;18.23;;
62523;SDS011;53689;56.878;60.672;2023-02-20T03:49:34;26.77;;;18.30;;
62523;SDS011;53689;56.878;60.672;2023-02-20T03:52:04;28.52;;;18.85;;
62523;SDS011;53689;56.878;60.672;2023-02-20T03:54:37;30.17;;;20.38;;
62523;SDS011;53689;56.878;60.672;2023-02-20T03:57:08;32.22;;;22.58;;
62523;SDS011;53689;56.878;60.672;2023-02-20T03:59:41;28.45;;;20.10;;
62523;SDS011;53689;56.878;60.672;2023-02-20T04:02:13;29.55;;;20.10;;
62523;SDS011;53689;56.878;60.672;2023-02-20T04:04:46;28.38;;;19.52;;
62523;SDS011;53689;56.878;60.672;2023-02-20T04:07:19;34.53;;;19.02;;
62523;SDS011;53689;56.878;60.672;2023-02-20T04:09:52;31.85;;;18.90;;
62523;SDS011;53689;56.878;60.672;2023-02-20T04:12:25;33.30;;;19.48;;
62523;SDS011;53689;56.878;60.672;2023-02-20T04:14:56;29.35;;;18.58;;
62523;SDS011;53689;56.878;60.672;2023-02-20T04:17:28;26.88;;;17.75;;
62523;SDS011;53689;56.878;60.672;2023-02-20T04:19:59;31.50;;;19.13;;
62523;SDS011;53689;56.878;60.672;2023-02-20T04:25:01;26.40;;;17.20;;
62523;SDS011;53689;56.878;60.672;2023-02-20T04:27:35;26.65;;;18.85;;
62523;SDS011;53689;56.878;60.672;2023-02-20T04:30:03;33.08;;;20.77;;
62523;SDS011;53689;56.878;60.672;2023-02-20T04:32:32;32.83;;;22.60;;
62523;SDS011;53689;56.878;60.672;2023-02-20T04:35:00;29.58;;;19.77;;
62523;SDS011;53689;56.878;60.672;2023-02-20T04:37:28;28.65;;;19.10;;
62523;SDS011;53689;56.878;60.672;2023-02-20T04:39:59;25.58;;;19.13;;
62523;SDS011;53689;56.878;60.672;2023-02-20T04:42:29;24.85;;;18.58;;
62523;SDS011;53689;56.878;60.672;2023-02-20T04:44:57;37.83;;;26.52;;
62523;SDS011;53689;56.878;60.672;2023-02-20T04:47:26;36.03;;;24.23;;
62523;SDS011;53689;56.878;60.672;2023-02-20T04:49:54;37.08;;;24.55;;
62523;SDS011;53689;56.878;60.672;2023-02-20T04:52:26;36.80;;;23.50;;
62523;SDS011;53689;56.878;60.672;2023-02-20T04:54:54;37.70;;;24.52;;
62523;SDS011;53689;56.878;60.672;2023-02-20T04:57:24;34.45;;;24.25;;
62523;SDS011;53689;56.878;60.672;2023-02-20T04:59:53;45.25;;;28.25;;
62523;SDS011;53689;56.878;60.672;2023-02-20T05:02:20;34.75;;;24.65;;
62523;SDS011;53689;56.878;60.672;2023-02-20T05:04:48;36.53;;;23.90;;
62523;SDS011;53689;56.878;60.672;2023-02-20T05:07:16;43.17;;;27.90;;
62523;SDS011;53689;56.878;60.672;2023-02-20T05:09:44;37.63;;;25.13;;
62523;SDS011;53689;56.878;60.672;2023-02-20T05:12:12;36.47;;;24.73;;
62523;SDS011;53689;56.878;60.672;2023-02-20T05:14:41;36.17;;;24.15;;
62523;SDS011;53689;56.878;60.672;2023-02-20T05:17:09;34.78;;;23.85;;
62523;SDS011;53689;56.878;60.672;2023-02-20T05:19:36;35.63;;;24.42;;
62523;SDS011;53689;56.878;60.672;2023-02-20T05:22:05;37.33;;;22.85;;
62523;SDS011;53689;56.878;60.672;2023-02-20T05:24:35;35.78;;;22.77;;
62523;SDS011;53689;56.878;60.672;2023-02-20T05:27:03;37.08;;;23.45;;
62523;SDS011;53689;56.878;60.672;2023-02-20T05:29:31;35.78;;;22.40;;
62523;SDS011;53689;56.878;60.672;2023-02-20T05:32:00;36.28;;;21.95;;
62523;SDS011;53689;56.878;60.672;2023-02-20T05:34:28;31.98;;;22.45;;
62523;SDS011;53689;56.878;60.672;2023-02-20T05:36:56;36.33;;;22.63;;
62523;SDS011;53689;56.878;60.672;2023-02-20T05:39:24;35.58;;;21.15;;
62523;SDS011;53689;56.878;60.672;2023-02-20T05:41:51;37.58;;;21.98;;
62523;SDS011;53689;56.878;60.672;2023-02-20T05:44:19;34.70;;;22.65;;
62523;SDS011;53689;56.878;60.672;2023-02-20T05:46:46;39.47;;;22.35;;
62523;SDS011;53689;56.878;60.672;2023-02-20T05:49:16;44.38;;;24.42;;
62523;SDS011;53689;56.878;60.672;2023-02-20T05:51:44;41.50;;;24.38;;
62523;SDS011;53689;56.878;60.672;2023-02-20T05:54:12;38.83;;;23.83;;
62523;SDS011;53689;56.878;60.672;2023-02-20T05:56:40;38.20;;;23.50;;
62523;SDS011;53689;56.878;60.672;2023-02-20T05:59:09;38.47;;;25.07;;
62523;SDS011;53689;56.878;60.672;2023-02-20T06:01:36;40.72;;;23.60;;
62523;SDS011;53689;56.878;60.672;2023-02-20T06:04:05;41.70;;;25.45;;
62523;SDS011;53689;56.878;60.672;2023-02-20T06:06:34;40.97;;;23.83;;
62523;SDS011;53689;56.878;60.672;2023-02-20T06:09:03;42.80;;;24.70;;
62523;SDS011;53689;56.878;60.672;2023-02-20T06:11:33;45.95;;;25.33;;
62523;SDS011;53689;56.878;60.672;2023-02-20T06:14:01;39.22;;;24.45;;
62523;SDS011;53689;56.878;60.672;2023-02-20T06:16:31;48.10;;;26.05;;
62523;SDS011;53689;56.878;60.672;2023-02-20T06:19:00;42.45;;;24.77;;
62523;SDS011;53689;56.878;60.672;2023-02-20T06:21:28;61.67;;;27.58;;
62523;SDS011;53689;56.878;60.672;2023-02-20T06:23:57;54.78;;;26.58;;
62523;SDS011;53689;56.878;60.672;2023-02-20T06:26:25;67.18;;;27.88;;
62523;SDS011;53689;56.878;60.672;2023-02-20T06:28:53;52.08;;;27.92;;
62523;SDS011;53689;56.878;60.672;2023-02-20T06:31:21;47.35;;;27.02;;
62523;SDS011;53689;56.878;60.672;2023-02-20T06:36:19;45.45;;;25.27;;
62523;SDS011;53689;56.878;60.672;2023-02-20T06:38:49;48.85;;;25.42;;
62523;SDS011;53689;56.878;60.672;2023-02-20T06:41:18;45.33;;;27.88;;
62523;SDS011;53689;56.878;60.672;2023-02-20T06:43:46;42.35;;;26.25;;
62523;SDS011;53689;56.878;60.672;2023-02-20T06:46:14;47.97;;;25.98;;
62523;SDS011;53689;56.878;60.672;2023-02-20T06:48:42;49.20;;;25.67;;
62523;SDS011;53689;56.878;60.672;2023-02-20T06:51:10;43.35;;;26.50;;
62523;SDS011;53689;56.878;60.672;2023-02-20T06:53:38;48.45;;;25.95;;
62523;SDS011;53689;56.878;60.672;2023-02-20T06:56:06;49.78;;;28.77;;
62523;SDS011;53689;56.878;60.672;2023-02-20T06:58:36;58.70;;;32.80;;
62523;SDS011;53689;56.878;60.672;2023-02-20T07:01:04;54.92;;;31.88;;
62523;SDS011;53689;56.878;60.672;2023-02-20T07:03:31;50.92;;;30.77;;
62523;SDS011;53689;56.878;60.672;2023-02-20T07:05:59;49.33;;;30.83;;
62523;SDS011;53689;56.878;60.672;2023-02-20T07:08:27;48.05;;;28.98;;
62523;SDS011;53689;56.878;60.672;2023-02-20T07:10:55;50.05;;;30.13;;
62523;SDS011;53689;56.878;60.672;2023-02-20T07:13:22;40.88;;;26.80;;
62523;SDS011;53689;56.878;60.672;2023-02-20T07:15:51;44.60;;;26.45;;
62523;SDS011;53689;56.878;60.672;2023-02-20T07:18:19;45.70;;;26.33;;
62523;SDS011;53689;56.878;60.672;2023-02-20T07:20:47;42.03;;;26.88;;
62523;SDS011;53689;56.878;60.672;2023-02-20T07:23:15;42.97;;;24.13;;
62523;SDS011;53689;56.878;60.672;2023-02-20T07:25:43;38.53;;;23.92;;
62523;SDS011;53689;56.878;60.672;2023-02-20T07:28:11;42.55;;;25.02;;
62523;SDS011;53689;56.878;60.672;2023-02-20T07:30:39;38.38;;;24.65;;
62523;SDS011;53689;56.878;60.672;2023-02-20T07:33:08;36.70;;;24.70;;
62523;SDS011;53689;56.878;60.672;2023-02-20T07:35:36;41.47;;;26.42;;
62523;SDS011;53689;56.878;60.672;2023-02-20T07:38:05;37.78;;;25.50;;
62523;SDS011;53689;56.878;60.672;2023-02-20T07:40:33;36.22;;;24.38;;
62523;SDS011;53689;56.878;60.672;2023-02-20T07:43:04;41.60;;;24.65;;
62523;SDS011;53689;56.878;60.672;2023-02-20T07:45:36;33.50;;;22.63;;
62523;SDS011;53689;56.878;60.672;2023-02-20T07:48:04;36.90;;;25.08;;
62523;SDS011;53689;56.878;60.672;2023-02-20T07:50:33;45.83;;;29.30;;
62523;SDS011;53689;56.878;60.672;2023-02-20T07:53:01;48.17;;;32.50;;
62523;SDS011;53689;56.878;60.672;2023-02-20T07:55:29;46.17;;;30.60;;
62523;SDS011;53689;56.878;60.672;2023-02-20T07:57:57;45.22;;;27.83;;
62523;SDS011;53689;56.878;60.672;2023-02-20T08:00:25;43.38;;;29.33;;
62523;SDS011;53689;56.878;60.672;2023-02-20T08:02:53;41.25;;;27.38;;
62523;SDS011;53689;56.878;60.672;2023-02-20T08:05:21;43.30;;;27.23;;
62523;SDS011;53689;56.878;60.672;2023-02-20T08:07:50;44.28;;;29.00;;
62523;SDS011;53689;56.878;60.672;2023-02-20T08:10:19;42.90;;;28.92;;
62523;SDS011;53689;56.878;60.672;2023-02-20T08:12:50;43.13;;;29.80;;
62523;SDS011;53689;56.878;60.672;2023-02-20T08:15:19;42.85;;;29.63;;
62523;SDS011;53689;56.878;60.672;2023-02-20T08:17:48;38.70;;;29.58;;
62523;SDS011;53689;56.878;60.672;2023-02-20T08:22:46;38.92;;;27.70;;
62523;SDS011;53689;56.878;60.672;2023-02-20T08:25:16;37.97;;;26.17;;
62523;SDS011;53689;56.878;60.672;2023-02-20T08:30:16;40.85;;;27.80;;
62523;SDS011;53689;56.878;60.672;2023-02-20T08:32:46;39.63;;;26.48;;
62523;SDS011;53689;56.878;60.672;2023-02-20T08:35:14;35.85;;;24.05;;
62523;SDS011;53689;56.878;60.672;2023-02-20T08:37:42;37.58;;;24.75;;
62523;SDS011;53689;56.878;60.672;2023-02-20T08:40:11;37.05;;;25.15;;
62523;SDS011;53689;56.878;60.672;2023-02-20T08:42:41;38.08;;;25.27;;
62523;SDS011;53689;56.878;60.672;2023-02-20T08:45:09;38.10;;;26.08;;
62523;SDS011;53689;56.878;60.672;2023-02-20T08:47:37;38.25;;;25.02;;
62523;SDS011;53689;56.878;60.672;2023-02-20T08:50:05;37.25;;;24.52;;
62523;SDS011;53689;56.878;60.672;2023-02-20T08:52:33;32.28;;;23.05;;
62523;SDS011;53689;56.878;60.672;2023-02-20T08:55:01;31.67;;;23.42;;
62523;SDS011;53689;56.878;60.672;2023-02-20T08:57:29;32.45;;;22.35;;
62523;SDS011;53689;56.878;60.672;2023-02-20T08:59:58;33.58;;;23.63;;
62523;SDS011;53689;56.878;60.672;2023-02-20T09:02:26;34.00;;;22.88;;
62523;SDS011;53689;56.878;60.672;2023-02-20T09:04:54;31.98;;;22.42;;
62523;SDS011;53689;56.878;60.672;2023-02-20T09:07:22;34.25;;;23.60;;
62523;SDS011;53689;56.878;60.672;2023-02-20T09:09:50;33.17;;;22.10;;
62523;SDS011;53689;56.878;60.672;2023-02-20T09:12:18;31.60;;;22.48;;
62523;SDS011;53689;56.878;60.672;2023-02-20T09:14:46;33.28;;;22.50;;
62523;SDS011;53689;56.878;60.672;2023-02-20T09:17:15;32.10;;;23.38;;
62523;SDS011;53689;56.878;60.672;2023-02-20T09:19:43;32.03;;;22.25;;
62523;SDS011;53689;56.878;60.672;2023-02-20T09:22:11;36.40;;;21.88;;
62523;SDS011;53689;56.878;60.672;2023-02-20T09:24:38;33.10;;;21.92;;
62523;SDS011;53689;56.878;60.672;2023-02-20T09:27:06;31.95;;;21.77;;
62523;SDS011;53689;56.878;60.672;2023-02-20T09:29:33;32.25;;;22.65;;
62523;SDS011;53689;56.878;60.672;2023-02-20T09:32:01;45.85;;;26.40;;
62523;SDS011;53689;56.878;60.672;2023-02-20T09:34:31;36.83;;;24.75;;
62523;SDS011;53689;56.878;60.672;2023-02-20T09:36:58;36.95;;;23.45;;
62523;SDS011;53689;56.878;60.672;2023-02-20T09:39:26;34.65;;;22.65;;
62523;SDS011;53689;56.878;60.672;2023-02-20T09:41:58;33.63;;;21.40;;
62523;SDS011;53689;56.878;60.672;2023-02-20T09:44:35;36.70;;;21.55;;
62523;SDS011;53689;56.878;60.672;2023-02-20T09:47:23;30.65;;;21.60;;
62523;SDS011;53689;56.878;60.672;2023-02-20T09:50:00;31.92;;;22.45;;
62523;SDS011;53689;56.878;60.672;2023-02-20T09:52:33;45.67;;;28.35;;
62523;SDS011;53689;56.878;60.672;2023-02-20T09:55:07;37.10;;;25.08;;
62523;SDS011;53689;56.878;60.672;2023-02-20T09:57:38;38.15;;;25.98;;
62523;SDS011;53689;56.878;60.672;2023-02-20T10:00:08;36.10;;;23.33;;
62523;SDS011;53689;56.878;60.672;2023-02-20T10:02:40;36.05;;;23.92;;
62523;SDS011;53689;56.878;60.672;2023-02-20T10:05:16;32.05;;;22.17;;
62523;SDS011;53689;56.878;60.672;2023-02-20T10:07:48;36.42;;;23.67;;
62523;SDS011;53689;56.878;60.672;2023-02-20T10:10:18;42.58;;;30.95;;
62523;SDS011;53689;56.878;60.672;2023-02-20T10:12:51;44.53;;;28.50;;
62523;SDS011;53689;56.878;60.672;2023-02-20T10:15:28;37.22;;;26.67;;
62523;SDS011;53689;56.878;60.672;2023-02-20T10:18:03;35.08;;;23.80;;
62523;SDS011;53689;56.878;60.672;2023-02-20T10:20:45;34.15;;;23.65;;
62523;SDS011;53689;56.878;60.672;2023-02-20T10:23:23;34.33;;;23.80;;
62523;SDS011;53689;56.878;60.672;2023-02-20T10:25:59;30.55;;;21.77;;
62523;SDS011;53689;56.878;60.672;2023-02-20T10:28:32;32.30;;;21.65;;
62523;SDS011;53689;56.878;60.672;2023-02-20T10:31:02;29.77;;;21.67;;
62523;SDS011;53689;56.878;60.672;2023-02-20T10:33:44;31.02;;;21.35;;
62523;SDS011;53689;56.878;60.672;2023-02-20T10:36:18;34.45;;;22.80;;
62523;SDS011;53689;56.878;60.672;2023-02-20T10:38:50;33.50;;;23.42;;
62523;SDS011;53689;56.878;60.672;2023-02-20T10:41:23;39.97;;;27.50;;
62523;SDS011;53689;56.878;60.672;2023-02-20T10:43:58;35.95;;;24.35;;
62523;SDS011;53689;56.878;60.672;2023-02-20T10:46:30;37.22;;;23.83;;
62523;SDS011;53689;56.878;60.672;2023-02-20T10:49:15;33.03;;;22.75;;
62523;SDS011;53689;56.878;60.672;2023-02-20T10:51:47;30.60;;;21.20;;
62523;SDS011;53689;56.878;60.672;2023-02-20T10:54:18;30.92;;;21.23;;
62523;SDS011;53689;56.878;60.672;2023-02-20T10:56:53;32.83;;;21.33;;
62523;SDS011;53689;56.878;60.672;2023-02-20T10:59:28;28.52;;;20.13;;
62523;SDS011;53689;56.878;60.672;2023-02-20T11:02:02;32.20;;;21.15;;
62523;SDS011;53689;56.878;60.672;2023-02-20T11:04:38;39.58;;;27.55;;
62523;SDS011;53689;56.878;60.672;2023-02-20T11:07:11;42.72;;;28.35;;
62523;SDS011;53689;56.878;60.672;2023-02-20T11:09:41;45.35;;;28.52;;
62523;SDS011;53689;56.878;60.672;2023-02-20T11:12:09;39.10;;;26.60;;
62523;SDS011;53689;56.878;60.672;2023-02-20T11:14:48;34.28;;;25.10;;
62523;SDS011;53689;56.878;60.672;2023-02-20T11:17:18;36.53;;;22.77;;
62523;SDS011;53689;56.878;60.672;2023-02-20T11:19:48;32.45;;;21.73;;
62523;SDS011;53689;56.878;60.672;2023-02-20T11:22:36;32.38;;;22.02;;
62523;SDS011;53689;56.878;60.672;2023-02-20T11:25:16;31.98;;;22.33;;
62523;SDS011;53689;56.878;60.672;2023-02-20T11:27:45;31.88;;;21.27;;
62523;SDS011;53689;56.878;60.672;2023-02-20T11:30:21;30.80;;;21.77;;
62523;SDS011;53689;56.878;60.672;2023-02-20T11:33:01;32.25;;;21.00;;
62523;SDS011;53689;56.878;60.672;2023-02-20T11:35:35;34.60;;;23.30;;
62523;SDS011;53689;56.878;60.672;2023-02-20T11:41:06;29.45;;;20.90;;
62523;SDS011;53689;56.878;60.672;2023-02-20T11:44:05;28.70;;;21.23;;
62523;SDS011;53689;56.878;60.672;2023-02-20T11:46:42;27.63;;;20.10;;
62523;SDS011;53689;56.878;60.672;2023-02-20T11:49:11;32.65;;;20.63;;
62523;SDS011;53689;56.878;60.672;2023-02-20T11:51:49;36.25;;;26.00;;
62523;SDS011;53689;56.878;60.672;2023-02-20T11:54:19;29.50;;;22.08;;
62523;SDS011;53689;56.878;60.672;2023-02-20T11:56:56;30.08;;;21.70;;
62523;SDS011;53689;56.878;60.672;2023-02-20T11:59:30;29.45;;;20.98;;
62523;SDS011;53689;56.878;60.672;2023-02-20T12:02:15;29.13;;;18.38;;
62523;SDS011;53689;56.878;60.672;2023-02-20T12:05:05;29.83;;;20.13;;
62523;SDS011;53689;56.878;60.672;2023-02-20T12:07:35;25.83;;;19.15;;
62523;SDS011;53689;56.878;60.672;2023-02-20T12:10:12;26.10;;;18.23;;
62523;SDS011;53689;56.878;60.672;2023-02-20T12:12:48;27.63;;;19.45;;
62523;SDS011;53689;56.878;60.672;2023-02-20T12:15:17;27.60;;;19.00;;
62523;SDS011;53689;56.878;60.672;2023-02-20T12:17:50;27.92;;;19.02;;
62523;SDS011;53689;56.878;60.672;2023-02-20T12:20:31;31.48;;;20.75;;
62523;SDS011;53689;56.878;60.672;2023-02-20T12:23:03;28.23;;;19.20;;
62523;SDS011;53689;56.878;60.672;2023-02-20T12:28:19;31.63;;;21.10;;
62523;SDS011;53689;56.878;60.672;2023-02-20T12:30:57;30.85;;;20.30;;
62523;SDS011;53689;56.878;60.672;2023-02-20T12:33:41;29.20;;;19.05;;
62523;SDS011;53689;56.878;60.672;2023-02-20T12:36:29;27.65;;;19.80;;
62523;SDS011;53689;56.878;60.672;2023-02-20T12:39:04;25.63;;;18.20;;
62523;SDS011;53689;56.878;60.672;2023-02-20T12:41:43;28.58;;;17.92;;
62523;SDS011;53689;56.878;60.672;2023-02-20T12:44:33;28.02;;;18.67;;
62523;SDS011;53689;56.878;60.672;2023-02-20T12:47:15;30.92;;;19.65;;
62523;SDS011;53689;56.878;60.672;2023-02-20T12:49:53;28.20;;;18.75;;
62523;SDS011;53689;56.878;60.672;2023-02-20T12:55:38;37.00;;;21.77;;
62523;SDS011;53689;56.878;60.672;2023-02-20T12:58:18;31.42;;;20.90;;
62523;SDS011;53689;56.878;60.672;2023-02-20T13:00:52;32.95;;;19.98;;
62523;SDS011;53689;56.878;60.672;2023-02-20T13:03:28;33.72;;;20.17;;
62523;SDS011;53689;56.878;60.672;2023-02-20T13:06:10;28.38;;;18.33;;
62523;SDS011;53689;56.878;60.672;2023-02-20T13:08:51;27.63;;;18.35;;
62523;SDS011;53689;56.878;60.672;2023-02-20T13:11:27;29.73;;;19.95;;
62523;SDS011;53689;56.878;60.672;2023-02-20T13:14:03;26.58;;;17.80;;
62523;SDS011;53689;56.878;60.672;2023-02-20T13:16:43;28.10;;;18.77;;
62523;SDS011;53689;56.878;60.672;2023-02-20T13:19:15;26.00;;;18.35;;
62523;SDS011;53689;56.878;60.672;2023-02-20T13:21:47;30.40;;;19.40;;
62523;SDS011;53689;56.878;60.672;2023-02-20T13:24:28;29.98;;;19.15;;
62523;SDS011;53689;56.878;60.672;2023-02-20T13:26:57;33.78;;;19.20;;
62523;SDS011;53689;56.878;60.672;2023-02-20T13:31:56;29.30;;;20.08;;
62523;SDS011;53689;56.878;60.672;2023-02-20T13:34:27;31.17;;;20.80;;
62523;SDS011;53689;56.878;60.672;2023-02-20T13:37:05;30.17;;;20.90;;
62523;SDS011;53689;56.878;60.672;2023-02-20T13:43:18;26.10;;;18.33;;
62523;SDS011;53689;56.878;60.672;2023-02-20T13:48:45;29.15;;;18.77;;
62523;SDS011;53689;56.878;60.672;2023-02-20T13:51:33;31.52;;;20.20;;
62523;SDS011;53689;56.878;60.672;2023-02-20T13:56:53;24.23;;;17.70;;
62523;SDS011;53689;56.878;60.672;2023-02-20T13:59:23;31.67;;;19.30;;
62523;SDS011;53689;56.878;60.672;2023-02-20T14:02:00;27.48;;;19.27;;
62523;SDS011;53689;56.878;60.672;2023-02-20T14:04:31;29.85;;;21.15;;
62523;SDS011;53689;56.878;60.672;2023-02-20T14:06:59;31.02;;;19.98;;
62523;SDS011;53689;56.878;60.672;2023-02-20T14:09:27;34.40;;;21.73;;
62523;SDS011;53689;56.878;60.672;2023-02-20T14:12:01;31.00;;;22.33;;
62523;SDS011;53689;56.878;60.672;2023-02-20T14:14:31;28.45;;;21.17;;
62523;SDS011;53689;56.878;60.672;2023-02-20T14:17:06;30.75;;;21.48;;
62523;SDS011;53689;56.878;60.672;2023-02-20T14:19:40;27.73;;;18.33;;
62523;SDS011;53689;56.878;60.672;2023-02-20T14:24:59;28.73;;;18.88;;
62523;SDS011;53689;56.878;60.672;2023-02-20T14:27:42;33.35;;;20.73;;
62523;SDS011;53689;56.878;60.672;2023-02-20T14:30:11;35.38;;;22.50;;
62523;SDS011;53689;56.878;60.672;2023-02-20T14:32:43;40.88;;;26.65;;
62523;SDS011;53689;56.878;60.672;2023-02-20T14:35:26;55.53;;;34.35;;
62523;SDS011;53689;56.878;60.672;2023-02-20T14:38:08;34.25;;;23.05;;
62523;SDS011;53689;56.878;60.672;2023-02-20T14:40:50;31.88;;;21.90;;
62523;SDS011;53689;56.878;60.672;2023-02-20T14:43:18;33.38;;;20.60;;
62523;SDS011;53689;56.878;60.672;2023-02-20T14:45:56;36.17;;;21.90;;
62523;SDS011;53689;56.878;60.672;2023-02-20T14:48:30;34.50;;;22.33;;
62523;SDS011;53689;56.878;60.672;2023-02-20T14:51:11;37.20;;;25.65;;
62523;SDS011;53689;56.878;60.672;2023-02-20T14:53:41;36.53;;;22.30;;
62523;SDS011;53689;56.878;60.672;2023-02-20T14:58:39;36.13;;;20.83;;
62523;SDS011;53689;56.878;60.672;2023-02-20T15:01:14;35.47;;;20.90;;
62523;SDS011;53689;56.878;60.672;2023-02-20T15:03:47;29.95;;;20.52;;
62523;SDS011;53689;56.878;60.672;2023-02-20T15:06:24;30.77;;;19.65;;
62523;SDS011;53689;56.878;60.672;2023-02-20T15:08:55;45.85;;;22.70;;
62523;SDS011;53689;56.878;60.672;2023-02-20T15:11:24;40.25;;;22.17;;
62523;SDS011;53689;56.878;60.672;2023-02-20T15:13:52;53.42;;;29.10;;
62523;SDS011;53689;56.878;60.672;2023-02-20T15:16:21;45.35;;;23.20;;
62523;SDS011;53689;56.878;60.672;2023-02-20T15:18:53;42.75;;;23.40;;
62523;SDS011;53689;56.878;60.672;2023-02-20T15:21:31;48.63;;;24.67;;
62523;SDS011;53689;56.878;60.672;2023-02-20T15:24:13;42.67;;;23.10;;
62523;SDS011;53689;56.878;60.672;2023-02-20T15:27:08;43.50;;;24.23;;
62523;SDS011;53689;56.878;60.672;2023-02-20T15:29:37;55.50;;;32.10;;